LFBD/BOD METAR and TAF weather

Enter ICAO airport designator
Station Type Date Time Source
LFBD METAR 2021/10/20 06:00 UTC NOAA

LFBD 200600Z AUTO 17002KT CAVOK 16/14 Q1017 NOSIG


Station Type Date Time Source
LFBD Decoded METAR 2021/10/20 06:00 UTC NOAA

Bordeaux / Merignac, France (LFBD) 44-50N 000-42W 61M
Oct 20, 2021 - 02:00 AM EDT / 2021.10.20 0600 UTC
Wind: from the S (170 degrees) at 2 MPH (2 KT):0
Visibility: greater than 7 mile(s):0
Temperature: 60 F (16 C)
Dew Point: 57 F (14 C)
Relative Humidity: 87%
Pressure (altimeter): 30.03 in. Hg (1017 hPa)
ob: LFBD 200600Z AUTO 17002KT CAVOK 16/14 Q1017 NOSIG
cycle: 6

Station Type Date Time Source
LFBD TAF 2021/10/20 06:21 UTC NOAA

TAF TAF LFBD 200500Z 2006/2112 15010KT CAVOK TX23/2014Z TN15/2006Z
BECMG 2009/2011 25010KT
TEMPO 2016/2021 4000 SHRA FEW035CB BKN040TCU
BECMG 2019/2021 26015G25KT BKN040 PROB40
TEMPO 2022/2103 27020G35KT
BECMG 2103/2105 28010KT PROB40
TEMPO 2107/2112 -SHRA BKN030TCU

Example: see airport list